createdAt,value
2023-05-20T00:00:41.484Z,16.60
2023-05-20T00:03:15.799Z,16.50
2023-05-20T00:05:50.099Z,16.50
2023-05-20T00:08:25.676Z,16.50
2023-05-20T00:10:59.508Z,16.50
2023-05-20T00:13:36.298Z,16.50
2023-05-20T00:16:10.270Z,16.50
2023-05-20T00:18:44.793Z,16.40
2023-05-20T00:21:18.813Z,16.40
2023-05-20T00:23:54.945Z,16.40
2023-05-20T00:26:31.184Z,16.40
2023-05-20T00:29:05.689Z,16.40
2023-05-20T00:31:39.832Z,16.30
2023-05-20T00:34:14.989Z,16.30
2023-05-20T00:36:49.138Z,16.30
2023-05-20T00:39:24.577Z,16.30
2023-05-20T00:42:00.857Z,16.20
2023-05-20T00:44:34.791Z,16.20
2023-05-20T00:47:10.212Z,16.20
2023-05-20T00:49:48.113Z,16.10
2023-05-20T00:52:24.587Z,16.10
2023-05-20T00:55:00.045Z,16.10
2023-05-20T00:57:34.162Z,16.00
2023-05-20T01:00:13.856Z,16.00
2023-05-20T01:02:48.155Z,16.00
2023-05-20T01:05:22.106Z,15.90
2023-05-20T01:07:56.346Z,15.90
2023-05-20T01:10:34.181Z,15.80
2023-05-20T01:13:13.896Z,15.80
2023-05-20T01:15:49.865Z,15.70
2023-05-20T01:18:30.615Z,15.70
2023-05-20T01:21:06.385Z,15.70
2023-05-20T01:23:44.804Z,15.60
2023-05-20T01:26:19.845Z,15.60
2023-05-20T01:28:53.779Z,15.60
2023-05-20T01:31:36.646Z,15.50
2023-05-20T01:34:12.342Z,15.50
2023-05-20T01:36:48.531Z,15.50
2023-05-20T01:39:25.739Z,15.50
2023-05-20T01:42:00.390Z,15.40
2023-05-20T01:44:35.716Z,15.40
2023-05-20T01:47:09.636Z,15.40
2023-05-20T01:49:44.051Z,15.40
2023-05-20T01:52:18.443Z,15.40
2023-05-20T01:54:53.862Z,15.40
2023-05-20T01:57:27.499Z,15.30
2023-05-20T02:00:01.814Z,15.30
2023-05-20T02:02:36.178Z,15.30
2023-05-20T02:05:11.674Z,15.30
2023-05-20T02:07:45.630Z,15.30
2023-05-20T02:10:21.371Z,15.30
2023-05-20T02:12:55.799Z,15.30
2023-05-20T02:15:30.072Z,15.20
2023-05-20T02:18:06.145Z,15.20
2023-05-20T02:20:45.397Z,15.20
2023-05-20T02:23:19.799Z,15.20
2023-05-20T02:25:55.950Z,15.20
2023-05-20T02:28:29.750Z,15.10
2023-05-20T02:31:03.641Z,15.10
2023-05-20T02:33:38.470Z,15.10
2023-05-20T02:36:12.591Z,15.00
2023-05-20T02:38:46.832Z,15.00
2023-05-20T02:41:22.747Z,14.90
2023-05-20T02:43:56.686Z,14.90
2023-05-20T02:46:30.882Z,14.90
2023-05-20T02:49:05.035Z,14.90
2023-05-20T02:51:39.105Z,14.80
2023-05-20T02:54:12.941Z,14.80
2023-05-20T02:56:48.576Z,14.80
2023-05-20T02:59:22.850Z,14.70
2023-05-20T03:01:56.678Z,14.70
2023-05-20T03:04:31.996Z,14.70
2023-05-20T03:07:07.980Z,14.70
2023-05-20T03:09:42.527Z,14.60
2023-05-20T03:12:17.912Z,14.60
2023-05-20T03:14:55.239Z,14.60
2023-05-20T03:17:29.834Z,14.60
2023-05-20T03:20:04.189Z,14.60
2023-05-20T03:22:38.274Z,14.50
2023-05-20T03:25:12.986Z,14.50
2023-05-20T03:27:48.520Z,14.50
2023-05-20T03:30:23.859Z,14.50
2023-05-20T03:32:58.964Z,14.50
2023-05-20T03:35:33.491Z,14.50
2023-05-20T03:38:12.676Z,14.40
2023-05-20T03:40:46.507Z,14.40
2023-05-20T03:43:21.998Z,14.40
2023-05-20T03:45:55.930Z,14.40
2023-05-20T03:48:29.521Z,14.40
2023-05-20T03:51:03.810Z,14.30
2023-05-20T03:53:37.757Z,14.30
2023-05-20T03:56:11.758Z,14.30
2023-05-20T03:58:48.057Z,14.30
2023-05-20T04:01:25.982Z,14.30
2023-05-20T04:04:00.175Z,14.20
2023-05-20T04:06:35.044Z,14.20
2023-05-20T04:09:09.025Z,14.20
2023-05-20T04:11:43.621Z,14.20
2023-05-20T04:14:19.286Z,14.20
2023-05-20T04:16:53.174Z,14.20
2023-05-20T04:19:28.937Z,14.20
2023-05-20T04:22:02.809Z,14.20
2023-05-20T04:24:38.149Z,14.20
2023-05-20T04:27:11.794Z,14.20
2023-05-20T04:29:47.837Z,14.30
2023-05-20T04:32:24.391Z,14.30
2023-05-20T04:34:58.683Z,14.30
2023-05-20T04:37:32.801Z,14.30
2023-05-20T04:40:09.298Z,14.30
2023-05-20T04:42:45.055Z,14.40
2023-05-20T04:45:21.190Z,14.40
2023-05-20T04:47:56.893Z,14.40
2023-05-20T04:50:31.202Z,14.50
2023-05-20T04:53:06.072Z,14.50
2023-05-20T04:55:44.628Z,14.50
2023-05-20T04:58:19.705Z,14.60
2023-05-20T05:00:55.486Z,14.60
2023-05-20T05:03:29.577Z,14.60
2023-05-20T05:06:04.021Z,14.70
2023-05-20T05:08:39.562Z,14.70
2023-05-20T05:11:13.144Z,14.80
2023-05-20T05:13:49.932Z,14.80
2023-05-20T05:16:24.935Z,14.90
2023-05-20T05:18:59.100Z,15.00
2023-05-20T05:21:37.002Z,15.20
2023-05-20T05:24:11.093Z,15.10
2023-05-20T05:26:45.222Z,15.10
2023-05-20T05:29:18.812Z,15.20
2023-05-20T05:31:54.354Z,15.30
2023-05-20T05:34:28.682Z,15.30
2023-05-20T05:37:04.502Z,15.40
2023-05-20T05:39:38.762Z,15.40
2023-05-20T05:42:13.191Z,15.50
2023-05-20T05:44:47.955Z,15.50
2023-05-20T05:47:24.163Z,15.60
2023-05-20T05:49:58.130Z,15.70
2023-05-20T05:52:32.145Z,15.70
2023-05-20T05:55:07.892Z,15.80
2023-05-20T05:57:42.476Z,15.80
2023-05-20T06:00:19.221Z,15.90
2023-05-20T06:02:55.538Z,16.00
2023-05-20T06:05:29.944Z,16.00
2023-05-20T06:08:04.130Z,16.00
2023-05-20T06:10:38.243Z,16.10
2023-05-20T06:13:12.401Z,16.10
2023-05-20T06:15:46.656Z,16.10
2023-05-20T06:18:21.922Z,16.20
2023-05-20T06:20:59.988Z,16.20
2023-05-20T06:23:34.934Z,16.30
2023-05-20T06:26:08.978Z,16.30
2023-05-20T06:28:43.689Z,16.40
2023-05-20T06:31:18.115Z,16.50
2023-05-20T06:33:53.314Z,16.60
2023-05-20T06:36:28.611Z,16.70
2023-05-20T06:39:02.564Z,16.70
2023-05-20T06:41:36.876Z,16.80
2023-05-20T06:44:10.943Z,16.90
2023-05-20T06:46:45.329Z,16.90
2023-05-20T06:49:23.625Z,17.00
2023-05-20T06:51:57.398Z,17.00
2023-05-20T06:54:31.490Z,17.10
2023-05-20T06:57:08.155Z,17.10
2023-05-20T06:59:43.465Z,17.20
2023-05-20T07:02:17.601Z,17.20
2023-05-20T07:04:53.238Z,17.30
2023-05-20T07:07:27.860Z,17.40
2023-05-20T07:10:01.910Z,17.40
2023-05-20T07:12:36.993Z,17.50
2023-05-20T07:15:12.575Z,17.50
2023-05-20T07:17:46.729Z,17.50
2023-05-20T07:20:24.450Z,17.50
2023-05-20T07:22:59.839Z,17.60
2023-05-20T07:25:34.483Z,17.50
2023-05-20T07:28:08.762Z,17.60
2023-05-20T07:30:56.091Z,17.60
2023-05-20T07:33:29.978Z,17.60
2023-05-20T07:36:09.723Z,17.60
2023-05-20T07:38:49.955Z,17.60
2023-05-20T07:41:35.781Z,17.60
2023-05-20T07:44:11.499Z,17.60
2023-05-20T07:46:45.559Z,17.60
2023-05-20T07:49:20.239Z,17.70
2023-05-20T07:51:56.842Z,17.70
2023-05-20T07:54:31.062Z,17.80
2023-05-20T07:57:05.398Z,17.80
2023-05-20T07:59:38.941Z,17.80
2023-05-20T08:02:13.536Z,17.90
2023-05-20T08:04:48.178Z,17.90
2023-05-20T08:07:24.013Z,18.00
2023-05-20T08:09:58.817Z,18.00
2023-05-20T08:12:33.408Z,18.00
2023-05-20T08:15:09.697Z,18.10
2023-05-20T08:17:44.049Z,18.20
2023-05-20T08:20:18.961Z,18.20
2023-05-20T08:22:55.543Z,18.30
2023-05-20T08:25:31.914Z,18.30
2023-05-20T08:28:07.954Z,18.40
2023-05-20T08:30:42.639Z,18.50
2023-05-20T08:33:18.297Z,18.50
2023-05-20T08:35:52.297Z,18.60
2023-05-20T08:38:27.932Z,18.60
2023-05-20T08:41:03.766Z,18.70
2023-05-20T08:43:38.844Z,18.70
2023-05-20T08:46:14.008Z,18.70
2023-05-20T08:48:49.322Z,18.80
2023-05-20T08:51:24.105Z,18.80
2023-05-20T08:54:01.826Z,18.80
2023-05-20T08:56:37.180Z,18.90
2023-05-20T08:59:11.523Z,18.90
2023-05-20T09:01:45.741Z,18.90
2023-05-20T09:04:20.150Z,19.00
2023-05-20T09:06:54.827Z,19.00
2023-05-20T09:09:31.261Z,19.00
2023-05-20T09:12:08.081Z,19.10
2023-05-20T09:14:41.894Z,19.10
2023-05-20T09:17:17.727Z,19.10
2023-05-20T09:19:52.145Z,19.10
2023-05-20T09:22:26.412Z,19.20
2023-05-20T09:25:02.356Z,19.20
2023-05-20T09:27:36.278Z,19.20
2023-05-20T09:30:13.230Z,19.20
2023-05-20T09:32:48.448Z,19.10
2023-05-20T09:35:23.957Z,19.20
2023-05-20T09:37:59.692Z,19.20
2023-05-20T09:40:38.915Z,19.20
2023-05-20T09:43:14.234Z,19.20
2023-05-20T09:45:50.622Z,19.20
2023-05-20T09:48:33.928Z,19.20
2023-05-20T09:51:10.380Z,19.20
2023-05-20T09:53:44.746Z,19.30
2023-05-20T09:56:23.294Z,19.20
2023-05-20T09:59:01.314Z,19.30
2023-05-20T10:01:34.978Z,19.30
2023-05-20T10:04:11.959Z,19.30
2023-05-20T10:07:27.704Z,19.30
2023-05-20T10:10:29.366Z,19.30
2023-05-20T10:13:21.565Z,19.30
2023-05-20T10:16:25.523Z,19.30
2023-05-20T10:19:14.980Z,19.40
2023-05-20T10:22:00.728Z,19.40
2023-05-20T10:24:38.257Z,19.40
2023-05-20T10:27:14.913Z,19.40
2023-05-20T10:29:53.626Z,19.40
2023-05-20T10:32:30.083Z,19.50
2023-05-20T10:35:06.055Z,19.50
2023-05-20T10:37:45.697Z,19.50
2023-05-20T10:40:24.075Z,19.50
2023-05-20T10:43:11.347Z,19.50
2023-05-20T10:45:54.801Z,19.60
2023-05-20T10:48:31.832Z,19.60
2023-05-20T10:51:15.469Z,19.60
2023-05-20T10:53:49.530Z,19.70
2023-05-20T10:56:25.568Z,19.80
2023-05-20T10:58:59.792Z,19.80
2023-05-20T11:01:35.639Z,19.80
2023-05-20T11:04:10.162Z,19.90
2023-05-20T11:06:54.541Z,20.00
2023-05-20T11:09:28.232Z,20.00
2023-05-20T11:12:02.531Z,20.10
2023-05-20T11:14:37.264Z,20.10
2023-05-20T11:17:12.736Z,20.10
2023-05-20T11:19:47.352Z,20.20
2023-05-20T11:22:21.214Z,20.30
2023-05-20T11:24:55.227Z,20.30
2023-05-20T11:27:30.441Z,20.40
2023-05-20T11:30:06.086Z,20.50
2023-05-20T11:32:43.053Z,20.50
2023-05-20T11:35:26.281Z,20.50
2023-05-20T11:38:04.934Z,20.70
2023-05-20T11:40:49.949Z,20.80
2023-05-20T11:43:25.805Z,20.90
2023-05-20T11:46:00.972Z,20.90
2023-05-20T11:48:36.471Z,21.00
2023-05-20T11:51:11.252Z,21.10
2023-05-20T11:53:45.009Z,21.30
2023-05-20T11:56:21.313Z,21.40
2023-05-20T11:58:55.391Z,21.50
2023-05-20T12:01:31.415Z,21.60
2023-05-20T12:04:08.266Z,21.70
2023-05-20T12:06:43.252Z,21.80
2023-05-20T12:09:16.914Z,22.00
2023-05-20T12:11:56.262Z,22.10
2023-05-20T12:14:30.689Z,22.10
2023-05-20T12:17:04.257Z,22.20
2023-05-20T12:19:40.560Z,22.30
2023-05-20T12:22:16.157Z,22.40
2023-05-20T12:24:53.549Z,22.40
2023-05-20T12:27:28.293Z,22.50
2023-05-20T12:30:05.116Z,22.60
2023-05-20T12:32:39.607Z,22.60
2023-05-20T12:35:15.433Z,22.60
2023-05-20T12:37:51.413Z,22.70
2023-05-20T12:40:25.367Z,22.70
2023-05-20T12:42:59.101Z,22.70
2023-05-20T12:45:32.797Z,22.80
2023-05-20T12:48:08.343Z,22.90
2023-05-20T12:50:45.121Z,22.90
2023-05-20T12:53:18.585Z,22.90
2023-05-20T12:55:53.814Z,22.90
2023-05-20T12:58:27.964Z,22.90
2023-05-20T13:01:01.845Z,22.90
2023-05-20T13:03:35.741Z,22.90
2023-05-20T13:06:11.721Z,22.90
2023-05-20T13:08:45.790Z,22.90
2023-05-20T13:11:21.779Z,22.90
2023-05-20T13:13:58.287Z,22.90
2023-05-20T13:16:32.660Z,22.90
2023-05-20T13:19:06.452Z,22.90
2023-05-20T13:21:42.007Z,22.90
2023-05-20T13:24:17.694Z,22.90
2023-05-20T13:26:51.808Z,22.90
2023-05-20T13:29:26.020Z,22.70
2023-05-20T13:32:01.904Z,22.90
2023-05-20T13:34:36.224Z,22.90
2023-05-20T13:37:14.430Z,22.90
2023-05-20T13:39:48.396Z,22.90
2023-05-20T13:42:23.859Z,22.90
2023-05-20T13:44:57.959Z,23.00
2023-05-20T13:47:32.031Z,23.00
2023-05-20T13:50:07.574Z,23.00
2023-05-20T13:52:42.769Z,23.00
2023-05-20T13:55:16.810Z,23.00
2023-05-20T13:57:53.695Z,23.10
2023-05-20T14:00:28.582Z,23.10
2023-05-20T14:03:05.044Z,23.10
2023-05-20T14:05:40.727Z,23.10
2023-05-20T14:08:16.183Z,23.10
2023-05-20T14:10:55.049Z,23.20
2023-05-20T14:13:28.820Z,23.20
2023-05-20T14:16:02.757Z,23.20
2023-05-20T14:18:38.137Z,23.10
2023-05-20T14:21:13.191Z,23.10
2023-05-20T14:23:49.245Z,23.10
2023-05-20T14:26:23.546Z,23.00
2023-05-20T14:28:59.820Z,23.00
2023-05-20T14:31:33.658Z,23.00
2023-05-20T14:34:07.498Z,22.90
2023-05-20T14:36:41.541Z,22.90
2023-05-20T14:39:19.181Z,22.80
2023-05-20T14:41:53.209Z,22.80
2023-05-20T14:44:27.601Z,22.80
2023-05-20T14:47:01.194Z,22.70
2023-05-20T14:49:37.009Z,22.70
2023-05-20T14:52:10.930Z,22.70
2023-05-20T14:54:46.579Z,22.80
2023-05-20T14:57:22.631Z,22.70
2023-05-20T14:59:56.270Z,22.70
2023-05-20T15:02:30.691Z,22.60
2023-05-20T15:05:05.106Z,22.60
2023-05-20T15:07:38.737Z,22.60
2023-05-20T15:10:14.342Z,22.50
2023-05-20T15:12:47.746Z,22.50
2023-05-20T15:15:22.867Z,22.50
2023-05-20T15:17:58.089Z,22.50
2023-05-20T15:20:31.956Z,22.50
2023-05-20T15:23:05.918Z,22.40
2023-05-20T15:25:41.335Z,22.40
2023-05-20T15:28:15.164Z,22.40
2023-05-20T15:30:57.086Z,22.40
2023-05-20T15:33:31.158Z,22.30
2023-05-20T15:36:05.333Z,22.30
2023-05-20T15:38:39.360Z,22.20
2023-05-20T15:41:16.537Z,22.20
2023-05-20T15:43:51.716Z,22.20
2023-05-20T15:46:26.432Z,22.10
2023-05-20T15:49:00.344Z,22.10
2023-05-20T15:51:33.792Z,22.10
2023-05-20T15:54:08.332Z,22.10
2023-05-20T15:56:43.806Z,22.00
2023-05-20T15:59:17.921Z,22.00
2023-05-20T16:01:52.120Z,22.00
2023-05-20T16:04:26.401Z,22.00
2023-05-20T16:07:00.590Z,21.90
2023-05-20T16:09:34.020Z,21.90
2023-05-20T16:12:09.331Z,21.90
2023-05-20T16:14:44.617Z,21.80
2023-05-20T16:17:21.569Z,21.80
2023-05-20T16:19:55.431Z,21.80
2023-05-20T16:22:30.036Z,21.70
2023-05-20T16:25:04.505Z,21.70
2023-05-20T16:27:39.996Z,21.70
2023-05-20T16:30:14.341Z,21.60
2023-05-20T16:32:49.418Z,21.60
2023-05-20T16:35:29.246Z,21.60
2023-05-20T16:38:03.123Z,21.60
2023-05-20T16:40:38.079Z,21.50
2023-05-20T16:43:14.095Z,21.50
2023-05-20T16:45:47.773Z,21.50
2023-05-20T16:48:22.150Z,21.50
2023-05-20T16:50:55.787Z,21.40
2023-05-20T16:53:29.510Z,21.40
2023-05-20T16:56:03.785Z,21.40
2023-05-20T16:58:39.007Z,21.40
2023-05-20T17:01:14.130Z,21.40
2023-05-20T17:03:50.613Z,21.40
2023-05-20T17:06:25.335Z,21.40
2023-05-20T17:09:00.041Z,21.40
2023-05-20T17:11:33.971Z,21.30
2023-05-20T17:14:09.103Z,21.30
2023-05-20T17:16:43.450Z,21.30
2023-05-20T17:19:17.264Z,21.30
2023-05-20T17:21:50.942Z,21.30
2023-05-20T17:24:24.868Z,21.20
2023-05-20T17:26:58.726Z,21.20
2023-05-20T17:29:33.985Z,21.20
2023-05-20T17:32:08.821Z,21.20
2023-05-20T17:34:42.805Z,21.10
2023-05-20T17:37:16.818Z,21.10
2023-05-20T17:39:50.626Z,21.10
2023-05-20T17:42:24.803Z,21.10
2023-05-20T17:45:01.748Z,21.10
2023-05-20T17:47:35.595Z,21.00
2023-05-20T17:50:11.713Z,21.00
2023-05-20T17:52:44.994Z,21.00
2023-05-20T17:55:22.247Z,21.00
2023-05-20T17:57:58.088Z,21.00
2023-05-20T18:00:34.808Z,21.00
2023-05-20T18:03:09.006Z,20.90
2023-05-20T18:05:42.729Z,20.90
2023-05-20T18:08:19.421Z,20.90
2023-05-20T18:10:53.941Z,20.90
2023-05-20T18:13:27.527Z,20.90
2023-05-20T18:16:02.945Z,20.90
2023-05-20T18:18:37.658Z,20.80
2023-05-20T18:21:11.854Z,20.80
2023-05-20T18:23:45.443Z,20.80
2023-05-20T18:26:24.435Z,20.80
2023-05-20T18:28:58.347Z,20.80
2023-05-20T18:31:33.908Z,20.80
2023-05-20T18:34:08.783Z,20.70
2023-05-20T18:36:42.957Z,20.70
2023-05-20T18:39:20.666Z,20.70
2023-05-20T18:41:54.537Z,20.70
2023-05-20T18:44:28.394Z,20.70
2023-05-20T18:47:04.990Z,20.60
2023-05-20T18:49:38.553Z,20.60
2023-05-20T18:52:12.448Z,20.60
2023-05-20T18:54:48.868Z,20.60
2023-05-20T18:57:23.164Z,20.60
2023-05-20T18:59:57.054Z,20.60
2023-05-20T19:02:32.338Z,20.50
2023-05-20T19:05:07.661Z,20.50
2023-05-20T19:07:41.547Z,20.50
2023-05-20T19:10:16.357Z,20.50
2023-05-20T19:12:49.906Z,20.40
2023-05-20T19:15:23.833Z,20.40
2023-05-20T19:17:59.304Z,20.30
2023-05-20T19:20:34.758Z,20.30
2023-05-20T19:23:08.674Z,20.30
2023-05-20T19:25:42.635Z,20.30
2023-05-20T19:28:16.489Z,20.20
2023-05-20T19:30:51.551Z,20.20
2023-05-20T19:33:27.143Z,20.20
2023-05-20T19:36:00.839Z,20.10
2023-05-20T19:38:34.761Z,20.10
2023-05-20T19:41:08.145Z,20.10
2023-05-20T19:43:42.363Z,20.00
2023-05-20T19:46:17.124Z,20.00
2023-05-20T19:48:52.244Z,20.00
2023-05-20T19:51:26.115Z,19.90
2023-05-20T19:54:00.153Z,19.90
2023-05-20T19:56:34.296Z,19.90
2023-05-20T19:59:09.000Z,19.80
2023-05-20T20:01:43.467Z,19.80
2023-05-20T20:04:19.453Z,19.80
2023-05-20T20:06:53.323Z,19.70
2023-05-20T20:09:27.696Z,19.70
2023-05-20T20:12:02.847Z,19.70
2023-05-20T20:14:36.390Z,19.70
2023-05-20T20:17:13.853Z,19.60
2023-05-20T20:19:49.297Z,19.60
2023-05-20T20:22:23.201Z,19.60
2023-05-20T20:24:56.775Z,19.50
2023-05-20T20:27:30.846Z,19.50
2023-05-20T20:30:06.846Z,19.50
2023-05-20T20:32:40.724Z,19.50
2023-05-20T20:35:16.335Z,19.40
2023-05-20T20:37:54.706Z,19.40
2023-05-20T20:40:32.879Z,19.40
2023-05-20T20:43:07.246Z,19.30
2023-05-20T20:45:41.926Z,19.30
2023-05-20T20:48:17.608Z,19.30
2023-05-20T20:50:52.779Z,19.20
2023-05-20T20:53:27.063Z,19.20
2023-05-20T20:56:00.841Z,19.20
2023-05-20T20:58:35.652Z,19.10
2023-05-20T21:01:10.149Z,19.10
2023-05-20T21:03:44.900Z,19.10
2023-05-20T21:06:20.095Z,19.00
2023-05-20T21:08:58.370Z,19.00
2023-05-20T21:11:33.266Z,18.90
2023-05-20T21:14:07.073Z,18.90
2023-05-20T21:16:42.430Z,18.90
2023-05-20T21:19:16.127Z,18.80
2023-05-20T21:21:51.433Z,18.80
2023-05-20T21:24:25.531Z,18.80
2023-05-20T21:26:59.330Z,18.70
2023-05-20T21:29:34.262Z,18.70
2023-05-20T21:32:08.994Z,18.60
2023-05-20T21:34:42.779Z,18.60
2023-05-20T21:37:18.632Z,18.60
2023-05-20T21:39:52.784Z,18.60
2023-05-20T21:42:27.388Z,18.50
2023-05-20T21:45:01.275Z,18.50
2023-05-20T21:47:37.845Z,18.50
2023-05-20T21:50:13.540Z,18.40
2023-05-20T21:52:48.796Z,18.40
2023-05-20T21:55:23.950Z,18.30
2023-05-20T21:57:57.875Z,18.30
2023-05-20T22:00:36.859Z,18.30
2023-05-20T22:03:12.473Z,18.30
2023-05-20T22:05:46.877Z,18.20
2023-05-20T22:08:22.598Z,18.20
2023-05-20T22:10:56.466Z,18.20
2023-05-20T22:13:30.632Z,18.20
2023-05-20T22:16:05.403Z,18.20
2023-05-20T22:18:39.809Z,18.10
2023-05-20T22:21:13.689Z,18.10
2023-05-20T22:23:49.280Z,18.10
2023-05-20T22:26:23.536Z,18.10
2023-05-20T22:28:57.396Z,18.10
2023-05-20T22:31:31.313Z,18.00
2023-05-20T22:34:05.777Z,18.00
2023-05-20T22:36:40.146Z,18.00
2023-05-20T22:39:15.828Z,18.00
2023-05-20T22:41:51.120Z,17.90
2023-05-20T22:44:25.262Z,17.90
2023-05-20T22:47:00.143Z,17.90
2023-05-20T22:49:34.167Z,17.90
2023-05-20T22:52:08.602Z,17.80
2023-05-20T22:54:44.255Z,17.80
2023-05-20T22:57:18.362Z,17.80
2023-05-20T22:59:52.555Z,17.80
2023-05-20T23:02:26.865Z,17.80
2023-05-20T23:05:00.652Z,17.80
2023-05-20T23:07:35.435Z,17.70
2023-05-20T23:10:12.709Z,17.70
2023-05-20T23:12:46.551Z,17.60
2023-05-20T23:15:21.096Z,17.70
2023-05-20T23:17:54.849Z,17.60
2023-05-20T23:20:29.600Z,17.60
2023-05-20T23:23:10.795Z,17.60
2023-05-20T23:25:47.889Z,17.50
2023-05-20T23:28:22.075Z,17.50
2023-05-20T23:30:56.985Z,17.50
2023-05-20T23:33:31.429Z,17.50
2023-05-20T23:36:09.461Z,17.40
2023-05-20T23:38:43.123Z,17.50
2023-05-20T23:41:18.460Z,17.40
2023-05-20T23:43:52.161Z,17.40
2023-05-20T23:46:27.427Z,17.40
2023-05-20T23:49:02.550Z,17.40
2023-05-20T23:51:37.699Z,17.30
2023-05-20T23:54:14.999Z,17.30
2023-05-20T23:56:52.255Z,17.30
2023-05-20T23:59:26.093Z,17.30
